Humboldt, Kansas
Current Conditions -  °F | °C
As of 5:52 PM on Sunday 21 Dec 2014 (Local Time) from KCNU Reporting Station
Overcast Overcast  
Wind Chill: 39°   Ceiling: 1700
Heat Index: 45°   Visibility: 10mi
Dew Point: 41°   Wind: 12mph
Humidity: 86%   Direction: 160°SSE
Pressure: 29.81"   Gusts: NA
Location:  37.81°N, 95.44°W
Report Text: KCNU 212352Z AUTO 16010KT 10SM OVC017 07/05 A2981 RMK AO2 SLP097 T00720050 10078 20067 58011
Loading
Personal Weather Stations






























Interactive Weather Map New forecast layout! Learn more

10-Day Weather Forecast

Advertisements
Track Severe Weather on mobile